North Hoosick, New York
Current Conditions -  °F | °C
As of 11:54 PM on Saturday 25 Oct 2014 (Local Time) from KDDH Reporting Station
Clear Clear  
Wind Chill: 51°   Ceiling: Unl
Heat Index: 51°   Visibility: 8mi
Dew Point: 46°   Wind: 7mph
Humidity: 83%   Direction: 210°SSW
Pressure: 29.53"   Gusts: NA
Location:  42.93°N, 73.34°W
Report Text: KDDH 260354Z AUTO 21006KT 8SM CLR 11/08 A2953 RMK AO2 SLP000 T01060078
Loading
Personal Weather Stations






























Interactive Weather Map
Tropical Storm Tracking
New forecast layout! Learn more

10-Day Weather Forecast

Advertisements
Track Severe Weather on mobile